createdAt,value
2018-09-12T00:11:51.644Z,63.2
2018-09-12T00:28:37.837Z,63.6
2018-09-12T00:45:24.593Z,64.0
2018-09-12T01:02:11.212Z,64.4
2018-09-12T01:18:57.504Z,65.2
2018-09-12T01:35:43.685Z,66.0
2018-09-12T01:52:30.029Z,66.4
2018-09-12T02:09:16.157Z,67.2
2018-09-12T02:26:02.350Z,67.6
2018-09-12T02:42:48.247Z,67.2
2018-09-12T02:59:34.206Z,67.6
2018-09-12T03:16:20.163Z,68.4
2018-09-12T03:33:06.196Z,68.8
2018-09-12T03:49:51.971Z,69.2
2018-09-12T04:06:37.787Z,70.0
2018-09-12T04:23:23.287Z,70.8
2018-09-12T04:40:08.670Z,71.2
2018-09-12T04:56:53.969Z,71.6
2018-09-12T05:13:39.544Z,72.0
2018-09-12T05:30:24.986Z,72.4
2018-09-12T05:47:10.488Z,73.6
2018-09-12T06:03:56.067Z,74.0
2018-09-12T06:20:41.793Z,73.6
2018-09-12T06:37:27.833Z,73.6
2018-09-12T06:54:14.095Z,73.6
2018-09-12T07:11:00.030Z,73.6
2018-09-12T07:24:25.612Z,73.6
2018-09-12T07:41:12.727Z,73.2
2018-09-12T07:58:00.219Z,73.2
2018-09-12T08:14:47.544Z,73.2
2018-09-12T08:31:35.118Z,72.8
2018-09-12T08:41:39.650Z,72.4
2018-09-12T08:48:22.975Z,72.0
2018-09-12T09:22:00.257Z,70.4
2018-09-12T09:38:49.289Z,70.4
2018-09-12T09:55:37.111Z,70.0
2018-09-12T10:09:04.340Z,68.8
2018-09-12T10:25:53.863Z,68.4
2018-09-12T10:32:37.277Z,66.8
2018-09-12T10:35:58.777Z,68.0
2018-09-12T10:39:20.131Z,68.8
2018-09-12T10:46:02.747Z,70.0
2018-09-12T11:02:48.576Z,70.4
2018-09-12T11:19:34.305Z,70.8
2018-09-12T11:36:20.199Z,70.4
2018-09-12T11:53:06.363Z,69.2
2018-09-12T11:59:48.348Z,69.6
2018-09-12T12:06:30.245Z,70.4
2018-09-12T12:23:14.853Z,70.8
2018-09-12T12:39:59.403Z,71.2
2018-09-12T12:50:02.262Z,72.0
2018-09-12T13:06:45.656Z,73.6
2018-09-12T13:23:29.396Z,74.4
2018-09-12T13:33:31.773Z,74.4
2018-09-12T13:50:15.544Z,75.2
2018-09-12T14:06:58.977Z,76.4
2018-09-12T14:23:42.352Z,76.8
2018-09-12T14:40:26.318Z,77.2
2018-09-12T14:57:09.557Z,76.8
2018-09-12T15:13:53.467Z,76.8
2018-09-12T15:30:37.639Z,76.4
2018-09-12T15:47:21.699Z,76.0
2018-09-12T16:04:05.600Z,76.4
2018-09-12T16:20:49.362Z,76.8
2018-09-12T16:37:33.569Z,77.2
2018-09-12T16:54:17.051Z,77.6
2018-09-12T17:10:59.855Z,77.2
2018-09-12T17:27:43.197Z,78.0
2018-09-12T17:44:26.647Z,78.0
2018-09-12T18:01:10.007Z,78.0
2018-09-12T18:17:53.348Z,78.0
2018-09-12T18:34:36.611Z,78.0
2018-09-12T18:51:20.222Z,78.0
2018-09-12T19:08:02.965Z,78.0
2018-09-12T19:24:46.415Z,77.6
2018-09-12T19:41:29.322Z,77.6
2018-09-12T19:58:12.736Z,78.0
2018-09-12T20:14:55.350Z,78.4
2018-09-12T20:31:37.735Z,78.4
2018-09-12T20:48:21.018Z,78.4
2018-09-12T21:05:02.840Z,78.8
2018-09-12T21:21:45.945Z,78.0
2018-09-12T21:38:27.526Z,78.0
2018-09-12T21:55:09.919Z,78.4
2018-09-12T22:11:52.267Z,78.4
2018-09-12T22:28:34.413Z,78.8
2018-09-12T22:45:16.762Z,78.8
2018-09-12T23:18:41.174Z,79.6
2018-09-12T23:35:22.978Z,79.6
2018-09-12T23:52:04.771Z,79.2
